Time;durP1;ratioP1;P1;durP2;ratioP2;P2;SDS_P1;SDS_P2;PMS_P1;PMS_P2;Temp;Humidity;BMP_temperature;BMP_pressure;BME280_temperature;BME280_humidity;BME280_pressure;Samples;Min_cycle;Max_cycle;Signal;HPM_P1;HPM_P2
2023/06/01 00:01:55;;;;;;;15.43;10.10;;;;;;;12.01;94.33;102291.28;5073091;28;20049;-77
2023/06/01 00:04:20;;;;;;;18.77;10.30;;;;;;;12.00;94.75;102302.53;5073017;28;20025;-77
2023/06/01 00:06:45;;;;;;;15.45;9.68;;;;;;;11.81;95.30;102280.97;5073071;28;20036;-76
2023/06/01 00:09:11;;;;;;;15.15;10.30;;;;;;;11.87;95.39;102314.34;5055393;28;20032;-77
2023/06/01 00:11:36;;;;;;;19.85;11.57;;;;;;;11.77;95.24;102311.28;5073066;28;20033;-76
2023/06/01 00:14:02;;;;;;;19.73;11.32;;;;;;;11.68;95.89;102312.53;5072791;28;20029;-76
2023/06/01 00:16:28;;;;;;;15.15;10.70;;;;;;;11.61;96.35;102305.13;5072611;28;20024;-77
2023/06/01 00:18:55;;;;;;;18.60;10.93;;;;;;;11.60;96.20;102290.47;5072850;28;20025;-79
2023/06/01 00:21:21;;;;;;;19.02;11.57;;;;;;;11.65;96.31;102309.25;5072706;28;20108;-77
2023/06/01 00:23:47;;;;;;;17.38;11.32;;;;;;;11.60;96.37;102311.19;5072781;28;20451;-77
2023/06/01 00:26:13;;;;;;;15.93;11.13;;;;;;;11.51;96.54;102311.59;5072644;28;20030;-77
2023/06/01 00:28:39;;;;;;;17.92;11.35;;;;;;;11.42;96.76;102311.09;5054185;28;20041;-77
2023/06/01 00:31:04;;;;;;;18.65;12.55;;;;;;;11.30;97.06;102308.16;5072263;28;20049;-76
2023/06/01 00:33:29;;;;;;;15.02;10.75;;;;;;;11.25;97.56;102308.38;5072435;28;20029;-77
2023/06/01 00:35:56;;;;;;;22.92;12.25;;;;;;;11.18;98.16;102309.53;5054269;28;20468;-77
2023/06/01 00:38:21;;;;;;;18.52;11.63;;;;;;;11.06;98.46;102290.19;5072232;28;20479;-77
2023/06/01 00:40:50;;;;;;;21.33;11.68;;;;;;;11.05;98.57;102301.44;5072037;28;20104;-78
2023/06/01 00:43:17;;;;;;;18.45;12.05;;;;;;;11.12;98.76;102315.81;5072562;28;20029;-77
2023/06/01 00:45:42;;;;;;;17.75;11.15;;;;;;;11.09;98.52;102315.91;5072448;28;20416;-77
2023/06/01 00:48:08;;;;;;;19.77;12.10;;;;;;;10.91;98.77;102291.69;5072332;28;20028;-77
2023/06/01 00:50:34;;;;;;;19.40;11.93;;;;;;;10.79;99.17;102288.72;5072210;28;20116;-77
2023/06/01 00:53:02;;;;;;;19.27;12.88;;;;;;;10.85;100.00;102315.19;5072312;28;20069;-78
2023/06/01 00:55:27;;;;;;;19.35;12.77;;;;;;;10.67;100.00;102294.41;5053932;28;20066;-77
2023/06/01 00:57:55;;;;;;;20.35;12.52;;;;;;;10.76;100.00;102306.97;5072444;28;20078;-77
2023/06/01 01:00:22;;;;;;;18.58;12.98;;;;;;;10.70;100.00;102317.53;5072295;28;20032;-78
2023/06/01 01:02:48;;;;;;;19.35;13.45;;;;;;;10.69;100.00;102315.84;5072191;28;20027;-77
2023/06/01 01:05:16;;;;;;;20.70;14.13;;;;;;;10.58;100.00;102304.19;5072384;28;20036;-77
2023/06/01 01:07:58;;;;;;;24.38;14.38;;;;;;;10.62;100.00;102318.69;5060990;28;20374;-77
2023/06/01 01:10:32;;;;;;;18.27;12.05;;;;;;;10.47;100.00;102310.69;5052142;28;20039;-77
2023/06/01 01:13:12;;;;;;;20.85;13.73;;;;;;;10.33;100.00;102296.56;5050538;28;20393;-77
2023/06/01 01:16:00;;;;;;;23.45;14.15;;;;;;;10.44;100.00;102327.16;5052118;28;20037;-77
2023/06/01 01:18:56;;;;;;;20.70;13.38;;;;;;;10.39;100.00;102326.47;5051774;28;20032;-78
2023/06/01 01:21:29;;;;;;;22.15;14.00;;;;;;;10.30;100.00;102327.66;5052066;28;20103;-77
2023/06/01 01:24:18;;;;;;;21.00;13.57;;;;;;;10.25;100.00;102321.84;5052033;28;20033;-78
2023/06/01 01:26:53;;;;;;;21.05;15.00;;;;;;;10.21;100.00;102321.97;5010094;28;20069;-77
2023/06/01 01:29:23;;;;;;;24.10;14.40;;;;;;;9.97;100.00;102306.50;5010333;28;20490;-78
2023/06/01 01:31:49;;;;;;;24.65;14.32;;;;;;;10.03;100.00;102311.44;5010165;28;20121;-79
2023/06/01 01:34:16;;;;;;;23.50;14.43;;;;;;;9.91;100.00;102300.72;5009962;28;20038;-78
2023/06/01 01:36:42;;;;;;;22.30;15.98;;;;;;;10.03;100.00;102326.09;5009906;28;20072;-78
2023/06/01 01:39:07;;;;;;;24.15;15.70;;;;;;;9.89;100.00;102305.09;5010149;28;20466;-76
2023/06/01 01:41:32;;;;;;;25.27;15.00;;;;;;;9.59;100.00;102260.63;5009924;28;20026;-77
2023/06/01 01:43:59;;;;;;;25.65;14.48;;;;;;;9.95;100.00;102322.94;5010043;28;20069;-77
2023/06/01 01:46:27;;;;;;;24.23;15.32;;;;;;;9.75;100.00;102285.81;5010112;28;20092;-78
2023/06/01 01:49:07;;;;;;;20.42;13.82;;;;;;;9.93;100.00;102323.00;5009379;28;20034;-77
2023/06/01 01:51:50;;;;;;;27.30;16.33;;;;;;;9.90;100.00;102325.69;5010033;28;20129;-77
2023/06/01 01:54:17;;;;;;;20.67;13.23;;;;;;;9.70;100.00;102316.06;5013492;28;20401;-78
2023/06/01 01:56:44;;;;;;;22.95;14.50;;;;;;;9.61;100.00;102308.66;5013544;28;20519;-76
2023/06/01 01:59:11;;;;;;;18.92;13.73;;;;;;;9.57;100.00;102317.41;5013500;28;20072;-78
2023/06/01 02:01:40;;;;;;;22.70;13.85;;;;;;;9.55;100.00;102319.22;5013594;28;20116;-78
2023/06/01 02:04:07;;;;;;;20.65;13.65;;;;;;;9.62;100.00;102330.97;5040914;28;20044;-78
2023/06/01 02:06:32;;;;;;;21.38;14.27;;;;;;;9.58;100.00;102320.84;5055216;28;20021;-78
2023/06/01 02:08:58;;;;;;;20.75;13.20;;;;;;;9.63;100.00;102324.06;5054928;28;20525;-76
2023/06/01 02:11:23;;;;;;;17.15;11.77;;;;;;;9.67;100.00;102325.66;5055429;28;20025;-82
2023/06/01 02:13:49;;;;;;;19.83;12.80;;;;;;;9.68;100.00;102327.34;5055206;28;20095;-78
2023/06/01 02:16:15;;;;;;;20.73;12.93;;;;;;;9.67;100.00;102323.09;5055201;28;20142;-77
2023/06/01 02:18:45;;;;;;;22.40;12.15;;;;;;;9.63;100.00;102303.44;5054949;28;20052;-82
2023/06/01 02:21:11;;;;;;;16.02;10.13;;;;;;;9.57;100.00;102293.38;5055105;28;20113;-83
2023/06/01 02:23:39;;;;;;;15.88;10.48;;;;;;;9.72;100.00;102309.13;5054751;28;20472;-83
2023/06/01 02:26:05;;;;;;;21.05;10.90;;;;;;;9.72;100.00;102318.59;5054878;28;20033;-81
2023/06/01 02:28:30;;;;;;;15.23;9.90;;;;;;;9.49;100.00;102275.56;5054999;28;20438;-83
2023/06/01 02:30:56;;;;;;;17.42;9.82;;;;;;;9.75;100.00;102316.75;5054861;28;20051;-83
2023/06/01 02:33:21;;;;;;;17.98;9.85;;;;;;;9.74;100.00;102314.25;5054760;28;20362;-82
2023/06/01 02:35:46;;;;;;;18.23;9.50;;;;;;;9.69;100.00;102291.19;5055034;28;20025;-84
2023/06/01 02:38:12;;;;;;;17.63;10.02;;;;;;;9.92;100.00;102316.13;5072165;28;20131;-83
2023/06/01 02:40:37;;;;;;;16.25;9.18;;;;;;;9.77;100.00;102290.91;5056536;28;20163;-83
2023/06/01 02:43:02;;;;;;;14.32;9.75;;;;;;;9.84;100.00;102315.59;5074620;28;20492;-82
2023/06/01 02:45:28;;;;;;;15.07;8.60;;;;;;;9.83;100.00;102313.88;5074799;28;20067;-83
2023/06/01 02:47:53;;;;;;;15.85;9.05;;;;;;;9.80;100.00;102305.44;5074587;28;20113;-82
2023/06/01 02:50:18;;;;;;;16.17;9.45;;;;;;;9.76;100.00;102312.44;5056153;28;20036;-82
2023/06/01 02:52:44;;;;;;;16.15;9.15;;;;;;;9.77;100.00;102317.53;5074513;28;20042;-83
2023/06/01 02:55:09;;;;;;;14.43;8.77;;;;;;;9.80;100.00;102313.16;5056310;28;20025;-82
2023/06/01 02:57:34;;;;;;;14.77;9.32;;;;;;;9.56;100.00;102286.53;5074604;28;20143;-83
2023/06/01 03:00:00;;;;;;;14.45;9.27;;;;;;;9.77;100.00;102321.88;5074324;28;20530;-82
2023/06/01 03:02:26;;;;;;;18.67;10.30;;;;;;;9.73;100.00;102317.69;5074459;28;20024;-83
2023/06/01 03:04:52;;;;;;;21.25;10.48;;;;;;;9.57;100.00;102295.94;5073881;28;20138;-81
2023/06/01 03:07:18;;;;;;;13.60;8.90;;;;;;;9.63;100.00;102300.88;5074457;28;20073;-83
2023/06/01 03:09:43;;;;;;;15.43;10.38;;;;;;;9.75;100.00;102328.81;5074178;28;20027;-83
2023/06/01 03:12:09;;;;;;;14.73;8.85;;;;;;;9.76;100.00;102322.78;5074067;28;20030;-82
2023/06/01 03:14:35;;;;;;;15.05;10.45;;;;;;;9.69;100.00;102324.72;5074232;28;20078;-83
2023/06/01 03:17:00;;;;;;;17.42;9.98;;;;;;;9.64;100.00;102321.47;5074104;28;20219;-82
2023/06/01 03:19:26;;;;;;;15.23;9.55;;;;;;;9.32;100.00;102273.56;5073818;28;20498;-82
2023/06/01 03:21:51;;;;;;;13.63;9.77;;;;;;;9.67;100.00;102317.94;5073847;28;20028;-82
2023/06/01 03:24:17;;;;;;;15.40;9.65;;;;;;;9.66;100.00;102327.41;5074075;28;20036;-83
2023/06/01 03:26:42;;;;;;;16.77;10.05;;;;;;;9.49;100.00;102293.63;5073705;28;20438;-83
2023/06/01 03:29:08;;;;;;;18.40;9.27;;;;;;;9.51;100.00;102291.81;5074005;28;20029;-83
2023/06/01 03:31:37;;;;;;;16.08;9.85;;;;;;;9.59;100.00;102307.03;5055562;28;20032;-82
2023/06/01 03:34:02;;;;;;;15.68;9.35;;;;;;;9.71;100.00;102325.50;5073252;28;20037;-82
2023/06/01 03:36:27;;;;;;;13.98;8.95;;;;;;;9.74;100.00;102327.16;5073785;28;20051;-82
2023/06/01 03:38:53;;;;;;;14.02;9.25;;;;;;;9.76;100.00;102310.72;5073606;28;20048;-83
2023/06/01 03:41:18;;;;;;;13.23;9.25;;;;;;;9.79;100.00;102309.75;5073612;28;20082;-80
2023/06/01 03:43:44;;;;;;;14.02;9.52;;;;;;;9.68;100.00;102296.41;5073655;28;20025;-83
2023/06/01 03:46:09;;;;;;;14.98;9.07;;;;;;;9.77;100.00;102321.88;5073773;28;20096;-81
2023/06/01 03:48:35;;;;;;;13.30;8.48;;;;;;;9.75;100.00;102319.34;5073458;28;20100;-82
2023/06/01 03:51:00;;;;;;;16.73;10.23;;;;;;;9.73;100.00;102313.41;5073170;28;20464;-82
2023/06/01 03:53:25;;;;;;;16.33;9.52;;;;;;;9.76;100.00;102317.59;5055504;28;20079;-82
2023/06/01 03:55:52;;;;;;;14.57;9.55;;;;;;;9.74;100.00;102329.72;5073525;28;20016;-83
2023/06/01 03:58:19;;;;;;;15.10;8.82;;;;;;;9.62;100.00;102304.34;5073131;28;20024;-80
2023/06/01 04:00:46;;;;;;;16.13;9.02;;;;;;;9.69;100.00;102321.28;5073094;28;20025;-82
2023/06/01 04:03:12;;;;;;;15.13;8.98;;;;;;;9.68;100.00;102301.56;5073151;28;20036;-83
2023/06/01 04:05:37;;;;;;;14.38;8.63;;;;;;;9.61;100.00;102289.75;5072972;28;20028;-82
2023/06/01 04:08:03;;;;;;;13.35;8.98;;;;;;;9.71;100.00;102304.00;5073058;28;20058;-81
2023/06/01 04:10:28;;;;;;;16.10;9.50;;;;;;;9.84;100.00;102313.03;5073125;28;20073;-78
2023/06/01 04:12:53;;;;;;;17.20;9.60;;;;;;;9.81;99.64;102305.38;5055067;28;20476;-82
2023/06/01 04:15:20;;;;;;;14.60;9.23;;;;;;;9.88;99.48;102309.41;5072316;28;20069;-82
2023/06/01 04:17:46;;;;;;;16.92;9.70;;;;;;;9.96;98.89;102315.16;5072714;28;20020;-82
2023/06/01 04:20:13;;;;;;;15.70;10.02;;;;;;;9.98;98.84;102323.66;5072700;28;20029;-83
2023/06/01 04:22:40;;;;;;;17.20;10.25;;;;;;;9.95;98.66;102326.38;5054683;28;20468;-83
2023/06/01 04:25:08;;;;;;;19.33;9.90;;;;;;;9.74;98.19;102291.03;5072653;28;20036;-82
2023/06/01 04:27:37;;;;;;;16.63;10.02;;;;;;;9.80;98.73;102308.00;5072770;28;20049;-82
2023/06/01 04:30:07;;;;;;;13.50;9.13;;;;;;;10.06;99.11;102331.97;5072683;28;20025;-82
2023/06/01 04:32:34;;;;;;;17.48;10.32;;;;;;;10.02;98.10;102332.13;5072735;28;20028;-80
2023/06/01 04:35:04;;;;;;;15.60;9.30;;;;;;;9.90;97.93;102320.53;5054136;28;20032;-83
2023/06/01 04:37:31;;;;;;;17.23;10.10;;;;;;;9.95;98.02;102335.84;5072393;28;20040;-82
2023/06/01 04:39:57;;;;;;;15.57;9.18;;;;;;;9.95;97.96;102341.84;5072442;28;20508;-81
2023/06/01 04:42:22;;;;;;;16.15;9.88;;;;;;;10.02;97.82;102340.72;5072379;28;20032;-82
2023/06/01 04:44:49;;;;;;;13.07;9.25;;;;;;;10.11;97.50;102343.84;5072484;28;20504;-81
2023/06/01 04:47:16;;;;;;;16.33;10.02;;;;;;;9.88;96.76;102296.50;5270582;23;20087;-79
2023/06/01 04:49:42;;;;;;;18.85;10.35;;;;;;;10.03;96.63;102314.03;5044675;28;20112;-83
2023/06/01 04:52:09;;;;;;;16.33;10.45;;;;;;;10.26;96.36;102346.75;5052399;28;20033;-83
2023/06/01 04:54:35;;;;;;;16.15;10.05;;;;;;;10.21;96.54;102324.53;5052369;28;20028;-81
2023/06/01 04:57:01;;;;;;;17.77;9.55;;;;;;;10.37;95.64;102348.09;5052211;28;20072;-82
2023/06/01 04:59:27;;;;;;;16.10;10.00;;;;;;;10.41;95.86;102352.22;5034152;28;20045;-83
2023/06/01 05:01:52;;;;;;;16.13;10.77;;;;;;;10.47;96.11;102339.94;5052396;28;20025;-81
2023/06/01 05:06:53;;;;;;;14.80;9.32;;;;;;;10.55;95.04;102319.81;5152035;23;20052;-81
2023/06/01 05:09:18;;;;;;;14.98;9.90;;;;;;;10.48;94.13;102292.53;5092414;28;20062;-81
2023/06/01 05:11:44;;;;;;;14.65;9.10;;;;;;;10.63;94.07;102319.53;5092220;28;20026;-81
2023/06/01 05:14:09;;;;;;;15.23;8.85;;;;;;;10.42;92.66;102292.81;5092320;28;20027;-80
2023/06/01 05:16:34;;;;;;;15.00;9.52;;;;;;;10.69;93.33;102337.34;5092541;28;20028;-82
2023/06/01 05:19:00;;;;;;;16.65;9.65;;;;;;;10.61;93.64;102310.97;5092376;28;20028;-82
2023/06/01 05:21:25;;;;;;;15.75;9.30;;;;;;;10.62;92.68;102316.09;5092039;28;20035;-81
2023/06/01 05:23:50;;;;;;;23.08;9.73;;;;;;;10.80;92.52;102337.75;5092436;28;20032;-79
2023/06/01 05:26:16;;;;;;;16.52;10.05;;;;;;;10.84;92.21;102335.94;5073856;28;20028;-80
2023/06/01 05:28:42;;;;;;;14.10;9.77;;;;;;;10.69;91.81;102316.69;5096117;28;20039;-75
2023/06/01 05:31:08;;;;;;;26.85;10.15;;;;;;;10.72;92.25;102320.91;5078313;28;20066;-75
2023/06/01 05:33:33;;;;;;;19.60;10.43;;;;;;;10.86;91.78;102334.94;5078363;28;20035;-81
2023/06/01 05:35:58;;;;;;;23.25;10.95;;;;;;;10.93;91.24;102335.56;5096451;28;20020;-80
2023/06/01 05:38:24;;;;;;;16.13;9.95;;;;;;;11.01;91.02;102341.25;5096293;28;20043;-80
2023/06/01 05:40:49;;;;;;;17.02;9.63;;;;;;;11.30;89.57;102332.28;5096083;28;20020;-81
2023/06/01 05:43:15;;;;;;;15.50;9.55;;;;;;;11.67;87.96;102339.31;5095806;28;20036;-76
2023/06/01 05:45:41;;;;;;;15.60;9.20;;;;;;;11.95;86.48;102325.19;5095921;28;20023;-77
2023/06/01 05:48:06;;;;;;;14.65;9.00;;;;;;;12.07;86.09;102337.59;5096210;28;20028;-79
2023/06/01 05:50:31;;;;;;;15.27;10.40;;;;;;;12.05;87.02;102314.34;5095954;28;20024;-80
2023/06/01 05:52:57;;;;;;;17.45;10.32;;;;;;;11.96;85.20;102306.16;5095732;28;20025;-76
2023/06/01 05:55:22;;;;;;;14.45;9.23;;;;;;;12.01;84.69;102337.88;5095983;28;20024;-80
2023/06/01 05:57:47;;;;;;;14.07;9.52;;;;;;;11.67;85.36;102341.91;5095879;28;20035;-79
2023/06/01 06:00:15;;;;;;;14.85;9.85;;;;;;;11.44;87.47;102345.47;5095768;28;20166;-80
2023/06/01 06:02:42;;;;;;;18.48;9.68;;;;;;;11.46;87.21;102343.66;5094272;28;20024;-79
2023/06/01 06:05:07;;;;;;;16.25;9.55;;;;;;;12.40;85.38;102309.31;5096470;28;20043;-78
2023/06/01 06:07:33;;;;;;;18.02;9.82;;;;;;;14.17;77.59;102320.25;5095281;28;20506;-81
2023/06/01 06:09:58;;;;;;;16.67;9.75;;;;;;;15.89;71.12;102335.47;5095794;28;20028;-81
2023/06/01 06:12:24;;;;;;;15.85;8.30;;;;;;;16.48;67.60;102333.50;5095496;28;20020;-78
2023/06/01 06:14:49;;;;;;;14.27;8.55;;;;;;;17.08;63.58;102336.53;5095286;28;20460;-80
2023/06/01 06:17:15;;;;;;;13.70;8.55;;;;;;;16.68;64.29;102340.91;5095467;28;20060;-80
2023/06/01 06:19:43;;;;;;;14.65;8.70;;;;;;;15.96;65.63;102328.97;5095393;28;20020;-80
2023/06/01 06:22:08;;;;;;;12.27;8.60;;;;;;;15.35;68.56;102343.06;5095156;28;20030;-81
2023/06/01 06:24:34;;;;;;;18.73;8.13;;;;;;;14.86;68.24;102351.09;5095313;28;20383;-78
2023/06/01 06:26:59;;;;;;;13.68;8.65;;;;;;;14.13;70.48;102350.75;5095293;28;20077;-80
2023/06/01 06:29:24;;;;;;;14.23;8.82;;;;;;;13.69;72.73;102350.50;5095132;28;20027;-78
2023/06/01 06:31:50;;;;;;;14.38;9.52;;;;;;;13.51;74.90;102338.47;5095055;28;20024;-79
2023/06/01 06:34:15;;;;;;;37.22;10.40;;;;;;;13.48;74.29;102336.88;5095083;28;20052;-77
2023/06/01 06:36:41;;;;;;;14.27;8.77;;;;;;;13.32;74.49;102313.44;5095014;28;20020;-77
2023/06/01 06:39:06;;;;;;;13.93;9.40;;;;;;;13.42;74.77;102327.63;5094531;28;20051;-78
2023/06/01 06:41:32;;;;;;;15.43;9.57;;;;;;;13.46;73.15;102302.34;5095025;28;20540;-77
2023/06/01 06:43:57;;;;;;;15.40;9.75;;;;;;;13.54;75.35;102338.31;5093860;28;20016;-76
2023/06/01 06:46:22;;;;;;;19.10;9.80;;;;;;;13.55;74.92;102345.16;5076586;23;20144;-77
2023/06/01 06:48:48;;;;;;;17.52;8.80;;;;;;;13.56;75.21;102349.44;5071991;28;20077;-76
2023/06/01 06:51:13;;;;;;;14.38;9.45;;;;;;;13.46;75.73;102298.00;5074548;28;20047;-77
2023/06/01 06:53:38;;;;;;;15.45;9.38;;;;;;;13.69;73.76;102337.53;5075025;28;20467;-76
2023/06/01 06:56:04;;;;;;;15.43;8.95;;;;;;;13.56;75.07;102347.69;5074599;28;20052;-74
2023/06/01 06:58:29;;;;;;;15.25;9.32;;;;;;;13.61;75.15;102352.66;5074736;28;20056;-80
2023/06/01 07:00:55;;;;;;;15.63;9.23;;;;;;;13.90;74.05;102351.97;5074499;28;20035;-79
2023/06/01 07:03:21;;;;;;;15.15;8.40;;;;;;;15.35;69.91;102356.06;5074327;28;20558;-81
2023/06/01 07:05:47;;;;;;;12.68;8.23;;;;;;;16.93;63.51;102353.22;5074570;28;20020;-79
2023/06/01 07:08:13;;;;;;;15.32;8.57;;;;;;;17.90;59.98;102348.41;5056519;28;20371;-81
2023/06/01 07:10:39;;;;;;;14.75;8.63;;;;;;;18.74;55.93;102308.34;5074408;28;20024;-83
2023/06/01 07:13:04;;;;;;;15.45;7.63;;;;;;;19.44;54.00;102357.22;5074205;28;20032;-84
2023/06/01 07:15:29;;;;;;;12.93;6.78;;;;;;;20.11;53.98;102328.41;5074395;28;20066;-82
2023/06/01 07:17:55;;;;;;;14.25;7.82;;;;;;;21.82;48.90;102340.44;5074208;28;20020;-82
2023/06/01 07:20:20;;;;;;;13.15;7.72;;;;;;;23.07;44.92;102320.50;5055532;28;20032;-78
2023/06/01 07:22:49;;;;;;;16.23;7.50;;;;;;;23.01;43.57;102332.44;5074327;28;20041;-78
2023/06/01 07:25:15;;;;;;;12.88;7.30;;;;;;;23.05;42.09;102260.03;5074191;28;20089;-82
2023/06/01 07:27:42;;;;;;;15.45;7.78;;;;;;;22.91;42.17;102339.53;5074074;28;20025;-82
2023/06/01 07:30:10;;;;;;;12.35;7.15;;;;;;;21.13;44.76;102348.91;5074055;28;20024;-83
2023/06/01 07:32:36;;;;;;;11.50;7.50;;;;;;;20.21;46.80;102318.84;5073931;28;20028;-80
2023/06/01 07:35:01;;;;;;;12.52;7.65;;;;;;;19.45;48.92;102317.78;5073852;28;20025;-80
2023/06/01 07:37:27;;;;;;;14.15;7.95;;;;;;;18.72;51.65;102351.28;5073674;28;20384;-81
2023/06/01 07:39:54;;;;;;;15.10;8.68;;;;;;;17.77;54.54;102334.50;5073771;28;20062;-84
2023/06/01 07:42:20;;;;;;;12.27;8.13;;;;;;;16.91;57.47;102288.09;5073973;28;20031;-81
2023/06/01 07:44:46;;;;;;;14.30;9.20;;;;;;;16.61;59.51;102327.41;5073472;28;20107;-82
2023/06/01 07:47:11;;;;;;;15.13;9.13;;;;;;;16.27;60.60;102336.53;5064586;28;20111;-82
2023/06/01 07:49:37;;;;;;;13.70;9.35;;;;;;;15.65;63.48;102317.81;5052923;28;20385;-82
2023/06/01 07:52:03;;;;;;;13.75;8.73;;;;;;;15.53;63.52;102347.16;5035786;28;20045;-82
2023/06/01 07:54:29;;;;;;;14.40;8.77;;;;;;;15.09;66.31;102293.38;5053698;28;20388;-82
2023/06/01 07:56:54;;;;;;;16.10;9.85;;;;;;;15.02;65.03;102288.59;5053623;28;20025;-82
2023/06/01 07:59:23;;;;;;;16.42;9.82;;;;;;;14.98;66.82;102285.34;5053069;28;20415;-82
2023/06/01 08:01:51;;;;;;;17.45;9.50;;;;;;;15.00;67.42;102282.66;5053375;28;20021;-81
2023/06/01 08:04:20;;;;;;;18.42;9.55;;;;;;;15.17;65.78;102331.97;5053407;28;20029;-81
2023/06/01 08:06:46;;;;;;;17.70;10.07;;;;;;;15.05;67.10;102314.47;5053517;28;20031;-81
2023/06/01 08:11:53;;;;;;;14.32;9.23;;;;;;;14.74;67.82;102295.41;3912038;26;20092;-82
2023/06/01 08:14:18;;;;;;;15.80;9.80;;;;;;;14.77;66.94;102302.22;5052964;28;20057;-82
2023/06/01 08:16:45;;;;;;;14.65;8.95;;;;;;;14.77;68.75;102291.81;5053209;28;20139;-82
2023/06/01 08:19:11;;;;;;;16.00;9.70;;;;;;;14.89;67.23;102310.13;5053551;28;20043;-82
2023/06/01 08:21:36;;;;;;;15.48;9.88;;;;;;;15.01;68.36;102336.38;5053014;28;20477;-82
2023/06/01 08:24:11;;;;;;;16.80;10.00;;;;;;;14.72;68.32;102265.22;5053050;28;20433;-82
2023/06/01 08:26:54;;;;;;;15.93;9.43;;;;;;;14.71;67.38;102271.34;5053261;28;20051;-82
2023/06/01 08:29:27;;;;;;;16.48;10.60;;;;;;;14.26;67.83;102215.84;5053006;28;20032;-81
2023/06/01 08:31:59;;;;;;;15.30;10.07;;;;;;;14.27;68.08;102202.75;5052907;28;20464;-82
2023/06/01 08:34:29;;;;;;;14.10;9.18;;;;;;;14.34;68.47;102219.66;5052956;28;20021;-82
2023/06/01 08:36:57;;;;;;;16.08;9.80;;;;;;;15.11;68.33;102329.69;5052733;28;20044;-82
2023/06/01 08:42:45;;;;;;;18.10;10.18;;;;;;;15.40;67.45;102321.03;5052726;28;20075;-82
2023/06/01 08:45:24;;;;;;;15.63;10.18;;;;;;;15.09;67.82;102267.34;5052901;28;20086;-81
2023/06/01 08:51:15;;;;;;;20.48;10.48;;;;;;;15.23;65.97;102315.97;4971942;28;20526;-82
2023/06/01 09:00:16;;;;;;;17.25;9.80;;;;;;;14.59;66.76;102177.53;4971945;28;20158;-81
2023/06/01 09:02:42;;;;;;;17.20;10.45;;;;;;;15.20;67.44;102287.53;4971840;28;20042;-80
2023/06/01 09:05:08;;;;;;;17.85;10.52;;;;;;;15.21;67.80;102291.81;4971788;28;20169;-80
2023/06/01 09:07:34;;;;;;;14.05;9.55;;;;;;;15.20;66.96;102269.31;4971304;28;20510;-81
2023/06/01 09:09:59;;;;;;;18.90;10.25;;;;;;;15.50;66.00;102303.09;4955376;28;20030;-81
2023/06/01 09:12:30;;;;;;;18.25;10.95;;;;;;;15.59;67.20;102305.13;4991148;28;20433;-81
2023/06/01 09:15:08;;;;;;;15.73;9.98;;;;;;;15.42;66.56;102264.50;4990961;28;20058;-80
2023/06/01 09:17:34;;;;;;;17.15;10.82;;;;;;;15.80;66.25;102300.41;4991037;28;20382;-82
2023/06/01 09:20:00;;;;;;;16.83;10.45;;;;;;;15.74;65.71;102296.44;4991178;28;20026;-82
2023/06/01 09:27:47;;;;;;;16.63;10.30;;;;;;;15.98;65.43;102294.06;5524516;22;20047;-82
2023/06/01 09:30:13;;;;;;;19.05;10.82;;;;;;;15.93;64.86;102277.06;5112482;28;20028;-80
2023/06/01 09:32:40;;;;;;;17.15;10.48;;;;;;;15.84;63.22;102282.84;5112869;28;20035;-80
2023/06/01 09:35:07;;;;;;;16.25;11.05;;;;;;;15.85;65.53;102284.50;5112638;28;20367;-81
2023/06/01 09:37:37;;;;;;;17.88;10.35;;;;;;;15.66;65.23;102236.16;5094733;28;20374;-79
2023/06/01 09:40:16;;;;;;;17.92;10.70;;;;;;;15.81;65.72;102267.38;5112338;28;20020;-80
2023/06/01 09:42:42;;;;;;;14.52;10.15;;;;;;;15.90;65.84;102248.56;5112351;28;20024;-80
2023/06/01 09:45:17;;;;;;;16.13;10.38;;;;;;;16.04;65.26;102258.97;5112654;28;20035;-80
2023/06/01 09:47:43;;;;;;;19.27;11.02;;;;;;;16.03;65.49;102260.75;5112351;28;20031;-80
2023/06/01 09:50:08;;;;;;;21.63;11.25;;;;;;;16.07;64.00;102261.38;5112469;28;20031;-80
2023/06/01 09:52:34;;;;;;;19.65;11.40;;;;;;;16.28;65.62;102270.44;5112521;28;20486;-80
2023/06/01 09:55:05;;;;;;;17.45;11.15;;;;;;;16.35;64.97;102271.72;5112211;28;20086;-80
2023/06/01 09:57:31;;;;;;;16.75;11.18;;;;;;;16.32;62.47;102264.13;5112162;28;20035;-80
2023/06/01 09:59:57;;;;;;;16.33;11.65;;;;;;;16.35;64.51;102278.72;5112030;28;20019;-80
2023/06/01 10:02:24;;;;;;;18.00;11.40;;;;;;;16.37;62.10;102273.41;5112503;28;20037;-80
2023/06/01 10:04:50;;;;;;;17.17;11.57;;;;;;;16.29;64.05;102266.91;5112215;28;20055;-80
2023/06/01 10:07:17;;;;;;;19.08;11.70;;;;;;;16.22;65.46;102260.44;5094354;28;20055;-80
2023/06/01 10:09:45;;;;;;;18.70;11.73;;;;;;;16.13;63.01;102232.34;5112314;28;20104;-80
2023/06/01 10:12:11;;;;;;;17.77;11.52;;;;;;;16.34;62.79;102266.63;5093988;28;20066;-79
2023/06/01 10:14:38;;;;;;;17.17;11.45;;;;;;;16.26;64.31;102251.47;5115293;28;20063;-79
2023/06/01 10:17:04;;;;;;;15.95;11.55;;;;;;;16.50;65.65;102266.44;5116373;28;20046;-80
2023/06/01 10:19:30;;;;;;;21.92;12.75;;;;;;;16.62;64.05;102263.06;5116133;28;20016;-81
2023/06/01 10:21:59;;;;;;;18.55;12.57;;;;;;;16.70;64.29;102262.56;5115793;28;20092;-80
2023/06/01 10:24:26;;;;;;;18.33;12.05;;;;;;;16.48;62.98;102237.03;5115799;28;20108;-81
2023/06/01 10:27:15;;;;;;;19.08;11.98;;;;;;;16.73;66.02;102263.22;5115479;28;20039;-81
2023/06/01 10:29:41;;;;;;;19.33;12.15;;;;;;;16.67;62.45;102255.75;5097603;28;20176;-80
2023/06/01 10:32:36;;;;;;;17.98;11.00;;;;;;;16.60;64.15;102223.19;5096725;28;20047;-80
2023/06/01 10:35:02;;;;;;;20.75;12.13;;;;;;;16.65;59.97;102223.72;5112693;28;20538;-80
2023/06/01 10:37:27;;;;;;;20.85;11.95;;;;;;;16.77;60.48;102259.44;5115309;28;20019;-82
2023/06/01 10:39:52;;;;;;;16.65;11.77;;;;;;;16.84;60.76;102246.84;5115317;28;20084;-80
2023/06/01 10:42:18;;;;;;;16.90;11.68;;;;;;;16.99;62.19;102252.78;5115769;28;20027;-80
2023/06/01 10:44:44;;;;;;;18.45;11.80;;;;;;;17.10;61.31;102251.13;5115365;28;20035;-80
2023/06/01 10:47:12;;;;;;;18.83;11.85;;;;;;;17.23;62.00;102243.31;5115570;28;20028;-81
2023/06/01 10:49:47;;;;;;;19.00;11.48;;;;;;;17.41;63.10;102254.28;5115427;28;20031;-81
2023/06/01 10:52:26;;;;;;;19.02;12.00;;;;;;;17.53;63.09;102232.53;5115485;28;20491;-81
2023/06/01 10:54:52;;;;;;;21.60;11.48;;;;;;;17.67;60.89;102244.59;5115291;28;20032;-81
2023/06/01 10:57:25;;;;;;;15.90;10.95;;;;;;;17.57;59.28;102240.97;5115404;28;20487;-82
2023/06/01 11:00:23;;;;;;;15.52;11.05;;;;;;;17.55;61.12;102246.31;5115275;28;20031;-80
2023/06/01 11:02:59;;;;;;;15.25;11.05;;;;;;;17.59;61.47;102239.06;5115327;28;20149;-82
2023/06/01 11:05:43;;;;;;;15.20;10.98;;;;;;;17.45;60.12;102245.28;5114773;28;20031;-81
2023/06/01 11:08:21;;;;;;;13.32;10.00;;;;;;;17.41;60.06;102236.00;5115137;28;20099;-81
2023/06/01 11:10:53;;;;;;;16.77;10.07;;;;;;;17.24;60.10;102233.72;5114925;28;20020;-82
2023/06/01 11:13:34;;;;;;;16.20;10.88;;;;;;;17.18;60.69;102227.94;5115107;28;20027;-81
2023/06/01 11:16:18;;;;;;;14.97;10.00;;;;;;;17.37;62.04;102227.53;5114936;28;20020;-81
2023/06/01 11:18:46;;;;;;;16.42;10.75;;;;;;;17.56;61.28;102226.25;5114712;28;20035;-82
2023/06/01 11:21:21;;;;;;;13.80;10.05;;;;;;;17.57;60.90;102202.63;5114617;28;20024;-81
2023/06/01 11:23:47;;;;;;;15.50;9.63;;;;;;;17.61;60.08;102218.94;5114725;28;20114;-78
2023/06/01 11:26:17;;;;;;;15.38;10.02;;;;;;;17.63;60.47;102230.94;5114539;28;20031;-80
2023/06/01 11:28:43;;;;;;;15.52;10.18;;;;;;;17.39;60.99;102193.47;5114513;28;20489;-81
2023/06/01 11:31:13;;;;;;;18.98;10.27;;;;;;;17.02;59.74;102114.28;5114580;28;20059;-80
2023/06/01 11:33:43;;;;;;;18.45;10.38;;;;;;;17.54;61.03;102196.78;5114441;28;20062;-80
2023/06/01 11:36:10;;;;;;;15.25;9.70;;;;;;;17.73;58.67;102228.53;5114180;28;20020;-78
2023/06/01 11:38:41;;;;;;;15.45;9.77;;;;;;;17.73;58.59;102215.47;5114426;28;20015;-80